Time;durP1;ratioP1;P1;durP2;ratioP2;P2;SDS_P1;SDS_P2;PMS_P1;PMS_P2;Temp;Humidity;BMP_temperature;BMP_pressure;BME280_temperature;BME280_humidity;BME280_pressure;Samples;Min_cycle;Max_cycle;Signal;HPM_P1;HPM_P2
2021/04/24 00:00:30;;;;;;;18.50;11.60;;;6.70;89.60;;;;;;8371804;28;20441;-76
2021/04/24 00:04:31;;;;;;;24.33;13.10;;;6.70;89.80;;;;;;8352163;28;20467;-76
2021/04/24 00:08:32;;;;;;;27.33;16.30;;;6.60;90.30;;;;;;8345202;28;20445;-76
2021/04/24 00:12:36;;;;;;;33.63;15.30;;;6.60;90.60;;;;;;8343243;28;20192;-75
2021/04/24 00:16:37;;;;;;;33.50;15.00;;;6.60;90.70;;;;;;8351114;28;20437;-75
2021/04/24 00:20:39;;;;;;;32.77;16.93;;;6.70;90.80;;;;;;8350843;28;20553;-76
2021/04/24 00:24:40;;;;;;;25.07;14.60;;;6.60;90.80;;;;;;8350015;28;20216;-75
2021/04/24 00:28:41;;;;;;;28.87;15.40;;;6.50;90.70;;;;;;8328766;28;20447;-76
2021/04/24 00:32:47;;;;;;;18.33;12.47;;;6.50;90.70;;;;;;8371257;28;20186;-75
2021/04/24 00:36:51;;;;;;;24.63;13.70;;;6.50;90.80;;;;;;8348725;28;20448;-76
2021/04/24 00:40:53;;;;;;;34.13;15.17;;;6.40;90.60;;;;;;8352588;28;20441;-76
2021/04/24 00:44:55;;;;;;;21.17;14.30;;;6.30;90.50;;;;;;8351844;28;20515;-76
2021/04/24 00:48:55;;;;;;;27.07;14.00;;;6.30;90.60;;;;;;8347213;28;20444;-75
2021/04/24 00:52:59;;;;;;;28.97;16.27;;;6.20;90.30;;;;;;8346833;28;20514;-76
2021/04/24 00:57:04;;;;;;;22.40;12.40;;;6.10;90.60;;;;;;8363148;28;20191;-76
2021/04/24 01:01:05;;;;;;;29.93;16.90;;;6.10;90.70;;;;;;8355196;28;20444;-77
2021/04/24 01:05:16;;;;;;;25.00;13.93;;;6.00;90.90;;;;;;8362398;28;21252;-77
2021/04/24 01:09:20;;;;;;;41.00;16.70;;;5.90;91.20;;;;;;8349097;28;20927;-77
2021/04/24 01:13:20;;;;;;;29.47;16.50;;;5.80;91.40;;;;;;8339306;28;20452;-77
2021/04/24 01:17:21;;;;;;;30.60;15.70;;;5.70;91.60;;;;;;8356820;28;20476;-75
2021/04/24 01:21:35;;;;;;;33.10;17.23;;;5.70;91.70;;;;;;8368256;28;20206;-76
2021/04/24 01:25:39;;;;;;;38.63;19.50;;;5.60;91.90;;;;;;8363129;28;20505;-76
2021/04/24 01:29:45;;;;;;;35.33;18.07;;;5.50;92.10;;;;;;8366079;28;20516;-76
2021/04/24 01:33:46;;;;;;;27.63;15.67;;;5.40;92.40;;;;;;8360475;28;20527;-76
2021/04/24 01:37:47;;;;;;;34.67;15.67;;;5.40;92.50;;;;;;8361107;28;20449;-76
2021/04/24 01:41:48;;;;;;;26.10;13.80;;;5.30;92.60;;;;;;8346041;28;20286;-76
2021/04/24 01:45:52;;;;;;;30.03;15.03;;;5.20;92.60;;;;;;8338604;28;20482;-76
2021/04/24 01:49:59;;;;;;;28.47;15.27;;;5.10;92.40;;;;;;8377671;28;20184;-76
2021/04/24 01:54:00;;;;;;;26.97;14.70;;;5.00;92.60;;;;;;8349919;28;20449;-76
2021/04/24 01:58:08;;;;;;;26.30;15.23;;;5.00;92.70;;;;;;8345960;28;20445;-76
2021/04/24 02:02:22;;;;;;;37.23;15.80;;;4.90;92.60;;;;;;8370398;28;20269;-75
2021/04/24 02:06:23;;;;;;;30.43;18.00;;;4.90;92.90;;;;;;8349281;28;20520;-76
2021/04/24 02:10:25;;;;;;;29.67;15.57;;;4.90;92.90;;;;;;8352549;28;20444;-75
2021/04/24 02:14:26;;;;;;;24.70;16.13;;;4.80;93.10;;;;;;8350955;28;20284;-75
2021/04/24 02:18:28;;;;;;;28.23;15.30;;;4.80;93.00;;;;;;8350421;28;20462;-76
2021/04/24 02:22:28;;;;;;;30.00;17.77;;;4.80;93.10;;;;;;8357203;28;20507;-76
2021/04/24 02:26:29;;;;;;;25.80;15.20;;;4.80;93.10;;;;;;8373508;28;20497;-76
2021/04/24 02:30:30;;;;;;;31.77;18.43;;;4.80;93.20;;;;;;8348437;28;20198;-76
2021/04/24 02:34:30;;;;;;;36.27;17.57;;;4.80;93.00;;;;;;8359311;28;20230;-76
2021/04/24 02:38:33;;;;;;;34.80;18.83;;;4.80;92.90;;;;;;8344654;28;20241;-77
2021/04/24 02:42:35;;;;;;;31.00;15.63;;;4.70;92.90;;;;;;8353334;28;20199;-77
2021/04/24 02:46:38;;;;;;;27.97;16.27;;;4.80;92.90;;;;;;8348599;28;20482;-77
2021/04/24 02:50:39;;;;;;;43.87;19.57;;;4.70;92.80;;;;;;8353897;28;20956;-77
2021/04/24 02:54:43;;;;;;;29.03;16.47;;;4.60;92.60;;;;;;8361791;28;20939;-76
2021/04/24 02:58:43;;;;;;;40.10;21.47;;;4.60;92.90;;;;;;8361486;28;20462;-76
2021/04/24 03:02:44;;;;;;;38.10;20.10;;;4.50;93.00;;;;;;8349820;28;20455;-76
2021/04/24 03:06:47;;;;;;;35.30;19.67;;;4.50;93.10;;;;;;8350972;28;20700;-76
2021/04/24 03:10:50;;;;;;;37.37;21.90;;;4.50;93.00;;;;;;8341000;28;20200;-76
2021/04/24 03:14:51;;;;;;;30.37;17.80;;;4.40;93.10;;;;;;8350780;28;20448;-76
2021/04/24 03:18:55;;;;;;;32.63;17.57;;;4.40;93.10;;;;;;8347947;28;20469;-76
2021/04/24 03:22:58;;;;;;;38.17;20.53;;;4.30;93.10;;;;;;8350856;28;20260;-76
2021/04/24 03:26:59;;;;;;;41.03;21.40;;;4.20;93.20;;;;;;8361714;28;20449;-76
2021/04/24 03:31:04;;;;;;;60.50;23.57;;;4.20;93.40;;;;;;8353506;28;20451;-76
2021/04/24 03:35:05;;;;;;;51.00;25.47;;;4.10;93.50;;;;;;8352760;28;20206;-76
2021/04/24 03:39:06;;;;;;;30.57;17.50;;;4.10;93.90;;;;;;8362752;28;20449;-76
2021/04/24 03:43:07;;;;;;;23.63;17.93;;;4.10;93.70;;;;;;8357257;28;20596;-76
2021/04/24 03:47:09;;;;;;;39.03;21.23;;;4.10;93.50;;;;;;8351045;28;20202;-76
2021/04/24 03:51:10;;;;;;;43.60;21.60;;;4.00;93.70;;;;;;8340194;28;20688;-76
2021/04/24 03:55:12;;;;;;;41.70;23.63;;;4.00;93.70;;;;;;8353621;28;20465;-76
2021/04/24 03:59:12;;;;;;;40.80;21.10;;;4.00;93.60;;;;;;8349755;28;20533;-76
2021/04/24 04:03:13;;;;;;;53.97;23.20;;;4.00;93.80;;;;;;8349337;28;20465;-77
2021/04/24 04:07:14;;;;;;;43.07;20.27;;;4.00;93.70;;;;;;8344091;28;20196;-77
2021/04/24 04:11:14;;;;;;;36.60;19.73;;;3.90;93.50;;;;;;8351971;28;20191;-77
2021/04/24 04:15:20;;;;;;;40.93;21.97;;;3.90;93.70;;;;;;8351375;28;20195;-77
2021/04/24 04:19:20;;;;;;;35.90;21.80;;;3.80;93.80;;;;;;8333742;28;20219;-77
2021/04/24 04:23:25;;;;;;;51.10;29.10;;;3.80;93.80;;;;;;8350865;28;20480;-76
2021/04/24 04:27:26;;;;;;;41.83;24.47;;;3.90;94.10;;;;;;8348372;28;20196;-76
2021/04/24 04:31:26;;;;;;;58.07;31.57;;;3.90;94.30;;;;;;8346038;28;20437;-77
2021/04/24 04:35:27;;;;;;;51.40;26.53;;;4.00;94.40;;;;;;8350885;28;20461;-76
2021/04/24 04:39:29;;;;;;;59.90;29.33;;;4.10;94.50;;;;;;8349586;28;20196;-76
2021/04/24 04:43:29;;;;;;;57.40;29.10;;;4.20;94.50;;;;;;8354793;28;20596;-76
2021/04/24 04:47:30;;;;;;;46.30;29.80;;;4.20;94.50;;;;;;8349958;28;20959;-76
2021/04/24 04:51:31;;;;;;;62.00;33.53;;;4.40;94.50;;;;;;8357525;28;20222;-76
2021/04/24 04:55:32;;;;;;;58.57;35.80;;;4.50;94.60;;;;;;8356595;28;20192;-76
2021/04/24 04:59:40;;;;;;;69.03;34.83;;;4.60;94.70;;;;;;8367133;28;20193;-76
2021/04/24 05:03:44;;;;;;;59.47;32.27;;;4.80;94.80;;;;;;8333429;28;20547;-76
2021/04/24 05:07:47;;;;;;;60.73;34.93;;;5.00;94.80;;;;;;8355903;28;20651;-76
2021/04/24 05:11:49;;;;;;;46.90;29.23;;;5.20;94.70;;;;;;8356496;28;20454;-77
2021/04/24 05:15:53;;;;;;;52.20;29.73;;;5.40;94.70;;;;;;8349125;28;20461;-76
2021/04/24 05:19:58;;;;;;;48.13;27.33;;;5.70;94.70;;;;;;8330358;28;20505;-77
2021/04/24 05:24:02;;;;;;;42.33;24.20;;;5.90;94.60;;;;;;8356947;28;20507;-77
2021/04/24 05:28:08;;;;;;;48.57;23.63;;;6.10;94.50;;;;;;8354559;28;20957;-77
2021/04/24 05:32:15;;;;;;;38.20;21.60;;;6.40;94.30;;;;;;8350282;28;20438;-77
2021/04/24 05:36:17;;;;;;;34.37;23.50;;;6.60;94.00;;;;;;8340253;28;20460;-77
2021/04/24 05:40:19;;;;;;;28.90;19.63;;;6.80;93.90;;;;;;8343039;28;20442;-77
2021/04/24 05:44:23;;;;;;;43.53;22.27;;;7.00;93.70;;;;;;8360291;28;20469;-76
2021/04/24 05:48:44;;;;;;;29.90;19.37;;;7.20;93.60;;;;;;8364455;28;20871;-77
2021/04/24 05:52:45;;;;;;;35.30;20.20;;;7.40;93.50;;;;;;8342312;28;20527;-77
2021/04/24 05:56:50;;;;;;;29.40;17.83;;;7.70;93.30;;;;;;8347796;28;20488;-74
2021/04/24 06:00:51;;;;;;;31.80;19.03;;;7.90;92.80;;;;;;8326876;28;20203;-75
2021/04/24 06:04:52;;;;;;;30.10;17.97;;;8.10;92.30;;;;;;8346363;28;21027;-74
2021/04/24 06:08:55;;;;;;;32.27;18.63;;;8.40;92.40;;;;;;8332619;28;20184;-76
2021/04/24 06:12:55;;;;;;;28.40;16.10;;;8.50;92.00;;;;;;8354776;28;20192;-76
2021/04/24 06:16:59;;;;;;;29.53;15.33;;;8.60;91.20;;;;;;8352172;28;20456;-75
2021/04/24 06:20:59;;;;;;;26.23;14.63;;;8.80;90.90;;;;;;8363241;28;20616;-76
2021/04/24 06:25:20;;;;;;;22.93;13.87;;;8.90;90.50;;;;;;8368799;28;20530;-75
2021/04/24 06:29:25;;;;;;;28.23;16.37;;;9.10;90.20;;;;;;8360292;28;20440;-74
2021/04/24 06:33:25;;;;;;;36.03;15.63;;;9.40;89.50;;;;;;8341048;28;20448;-75
2021/04/24 06:37:26;;;;;;;20.97;11.83;;;9.60;89.40;;;;;;8352029;28;20220;-74
2021/04/24 06:41:31;;;;;;;26.70;12.80;;;9.70;86.50;;;;;;8345493;28;20250;-75
2021/04/24 06:45:36;;;;;;;20.90;12.00;;;10.00;84.40;;;;;;8353855;28;20698;-75
2021/04/24 06:49:37;;;;;;;24.60;15.10;;;10.60;83.40;;;;;;8353596;28;20470;-76
2021/04/24 06:53:37;;;;;;;18.53;11.60;;;11.10;81.40;;;;;;8340602;28;20536;-76
2021/04/24 06:57:41;;;;;;;18.93;11.53;;;11.70;79.70;;;;;;8341794;28;20453;-76
2021/04/24 07:01:46;;;;;;;26.23;12.93;;;12.40;75.80;;;;;;8354025;28;20192;-76
2021/04/24 07:05:48;;;;;;;23.93;11.60;;;13.00;73.90;;;;;;8322249;28;20483;-76
2021/04/24 07:09:49;;;;;;;29.10;11.53;;;13.50;72.50;;;;;;8360117;28;20534;-76
2021/04/24 07:13:53;;;;;;;23.83;12.17;;;13.70;71.00;;;;;;8348380;28;20441;-76
2021/04/24 07:17:54;;;;;;;19.30;11.60;;;14.10;70.00;;;;;;8318811;28;20219;-75
2021/04/24 07:21:54;;;;;;;17.87;11.00;;;14.60;68.50;;;;;;8326232;28;20464;-76
2021/04/24 07:26:00;;;;;;;19.17;11.80;;;15.30;66.30;;;;;;8352019;28;20593;-76
2021/04/24 07:30:01;;;;;;;16.60;10.40;;;15.90;63.30;;;;;;8354010;28;20447;-76
2021/04/24 07:34:04;;;;;;;22.40;11.53;;;16.00;61.80;;;;;;8366153;28;20454;-76
2021/04/24 07:38:10;;;;;;;26.90;12.50;;;15.90;60.40;;;;;;8344914;28;20845;-76
2021/04/24 07:42:13;;;;;;;22.23;11.07;;;15.90;59.80;;;;;;8355279;28;20956;-76
2021/04/24 07:46:14;;;;;;;17.20;10.77;;;16.20;59.50;;;;;;8346882;28;20488;-76
2021/04/24 07:50:19;;;;;;;15.20;10.70;;;16.40;59.10;;;;;;8349654;28;20480;-76
2021/04/24 07:54:20;;;;;;;16.77;12.23;;;16.60;57.10;;;;;;8354945;28;20445;-78
2021/04/24 07:58:20;;;;;;;25.67;12.03;;;16.90;56.50;;;;;;8345639;28;20456;-76
2021/04/24 08:02:32;;;;;;;17.67;11.30;;;17.30;55.80;;;;;;8373561;28;20193;-77
2021/04/24 08:06:34;;;;;;;22.30;11.50;;;17.40;55.50;;;;;;8375222;28;20472;-76
2021/04/24 08:10:40;;;;;;;18.40;9.93;;;17.60;54.70;;;;;;8353859;28;20505;-75
2021/04/24 08:14:44;;;;;;;17.30;9.30;;;17.90;53.20;;;;;;8367713;28;20446;-76
2021/04/24 08:18:51;;;;;;;18.17;10.13;;;18.10;51.70;;;;;;8380468;28;20488;-77
2021/04/24 08:22:53;;;;;;;16.53;9.03;;;18.40;51.10;;;;;;8352590;28;20464;-76
2021/04/24 08:27:04;;;;;;;17.67;10.40;;;18.90;48.70;;;;;;8375249;28;20457;-77
2021/04/24 08:31:21;;;;;;;19.13;10.40;;;19.30;49.30;;;;;;8386587;28;20412;-76
2021/04/24 08:35:22;;;;;;;15.33;9.40;;;20.10;46.90;;;;;;8349458;28;20931;-73
2021/04/24 08:39:27;;;;;;;17.10;9.60;;;21.00;46.60;;;;;;8330922;28;20541;-75
2021/04/24 08:43:28;;;;;;;18.70;8.17;;;21.30;45.40;;;;;;8333538;28;20465;-74
2021/04/24 08:47:34;;;;;;;13.10;9.13;;;21.40;45.10;;;;;;8338929;28;20453;-74
2021/04/24 08:51:35;;;;;;;9.40;8.00;;;21.90;43.90;;;;;;8357791;28;20214;-74
2021/04/24 08:55:38;;;;;;;12.10;9.30;;;22.40;41.60;;;;;;8332924;28;20450;-75
2021/04/24 08:59:39;;;;;;;13.50;8.00;;;22.80;41.60;;;;;;8337881;28;20249;-75
2021/04/24 09:03:40;;;;;;;14.13;8.50;;;23.30;41.20;;;;;;8348816;28;20466;-77
2021/04/24 09:07:41;;;;;;;13.83;7.90;;;23.30;40.50;;;;;;8350652;28;20211;-73
2021/04/24 09:11:47;;;;;;;12.70;7.00;;;23.10;39.80;;;;;;8352226;28;20480;-75
2021/04/24 09:15:50;;;;;;;9.07;7.70;;;23.00;39.30;;;;;;8356638;28;20453;-78
2021/04/24 09:20:07;;;;;;;5.43;4.20;;;22.90;38.30;;;;;;8382512;28;20469;-76
2021/04/24 09:24:41;;;;;;;6.17;4.30;;;23.10;36.20;;;;;;8361705;28;20529;-77
2021/04/24 09:28:46;;;;;;;5.27;4.43;;;23.40;36.70;;;;;;8358798;28;20454;-77
2021/04/24 09:32:48;;;;;;;8.67;4.80;;;23.50;34.80;;;;;;8355676;28;20449;-77
2021/04/24 09:36:58;;;;;;;9.90;4.43;;;23.40;36.00;;;;;;8380893;28;20473;-76
2021/04/24 09:41:13;;;;;;;11.90;5.70;;;23.50;34.90;;;;;;8346045;28;20503;-77
2021/04/24 09:45:34;;;;;;;11.33;5.10;;;23.20;35.40;;;;;;8370191;28;20480;-77
2021/04/24 09:49:39;;;;;;;25.03;5.60;;;23.00;35.70;;;;;;8380973;28;20457;-78
2021/04/24 09:53:57;;;;;;;8.60;5.53;;;23.20;36.80;;;;;;8385732;28;20433;-79
2021/04/24 09:57:58;;;;;;;9.77;5.60;;;23.60;36.70;;;;;;8363893;28;20881;-77
2021/04/24 10:02:07;;;;;;;11.27;4.97;;;23.80;35.50;;;;;;8332424;28;21121;-76
2021/04/24 10:06:41;;;;;;;9.40;5.50;;;24.00;35.30;;;;;;8370640;28;20219;-77
2021/04/24 10:10:46;;;;;;;7.63;5.57;;;24.00;35.20;;;;;;8367863;28;20451;-76
2021/04/24 10:14:50;;;;;;;6.13;5.27;;;24.00;34.50;;;;;;8337477;28;20464;-77
2021/04/24 10:18:54;;;;;;;5.80;5.00;;;23.70;35.70;;;;;;8363841;28;20510;-77
2021/04/24 10:22:55;;;;;;;9.17;5.10;;;24.00;36.00;;;;;;8337149;28;20548;-76
2021/04/24 10:27:06;;;;;;;8.90;5.50;;;24.40;35.20;;;;;;8352057;28;20481;-76
2021/04/24 10:31:12;;;;;;;7.27;4.97;;;24.30;34.90;;;;;;8353404;28;20544;-75
2021/04/24 10:35:21;;;;;;;8.40;5.60;;;23.70;34.80;;;;;;8362206;28;21570;-76
2021/04/24 10:39:27;;;;;;;7.47;5.03;;;23.50;35.20;;;;;;8349613;28;20973;-78
2021/04/24 10:43:28;;;;;;;7.73;5.30;;;23.60;36.30;;;;;;8363841;28;20554;-77
2021/04/24 10:47:53;;;;;;;7.53;5.53;;;23.60;36.00;;;;;;8359639;28;20458;-77
2021/04/24 10:52:03;;;;;;;8.00;5.50;;;23.70;36.10;;;;;;8386119;28;20441;-78
2021/04/24 10:56:03;;;;;;;5.53;5.00;;;23.40;35.90;;;;;;8371889;28;20466;-76
2021/04/24 11:00:25;;;;;;;10.23;5.23;;;23.00;36.30;;;;;;8335350;28;20442;-76
2021/04/24 11:04:54;;;;;;;6.53;4.63;;;22.70;37.60;;;;;;8353140;28;20214;-75
2021/04/24 11:09:18;;;;;;;6.53;5.07;;;22.90;36.30;;;;;;8375177;28;20466;-77
2021/04/24 11:13:24;;;;;;;9.00;5.67;;;22.80;37.90;;;;;;8368846;28;20435;-76
2021/04/24 11:17:37;;;;;;;7.37;5.20;;;22.60;36.50;;;;;;8371036;28;20489;-76
2021/04/24 11:21:41;;;;;;;6.60;4.83;;;22.60;37.20;;;;;;8346263;28;20470;-76
2021/04/24 11:25:55;;;;;;;14.57;5.97;;;22.80;36.80;;;;;;8359016;28;20480;-76
2021/04/24 11:29:57;;;;;;;8.90;6.17;;;22.70;36.40;;;;;;8352432;28;20196;-76
2021/04/24 11:33:57;;;;;;;10.03;5.80;;;23.00;35.60;;;;;;8346912;28;20477;-76
2021/04/24 11:37:59;;;;;;;9.50;6.37;;;23.20;35.30;;;;;;8351625;28;20448;-76
2021/04/24 11:42:27;;;;;;;7.83;4.87;;;23.50;34.80;;;;;;8351999;28;20715;-77
2021/04/24 11:46:41;;;;;;;8.80;6.40;;;23.30;35.00;;;;;;8353920;28;20528;-77
2021/04/24 11:50:45;;;;;;;8.87;6.57;;;23.10;34.40;;;;;;8357275;28;20441;-77
2021/04/24 11:54:51;;;;;;;10.83;6.93;;;22.50;35.90;;;;;;8355482;28;20480;-76
2021/04/24 11:58:54;;;;;;;9.93;6.07;;;22.50;36.60;;;;;;8362067;28;20942;-75
2021/04/24 12:02:57;;;;;;;14.90;9.07;;;22.70;36.80;;;;;;8355737;28;20515;-76
2021/04/24 12:07:09;;;;;;;17.90;7.70;;;22.70;37.00;;;;;;8366847;28;20461;-77
2021/04/24 12:11:17;;;;;;;34.00;9.80;;;22.80;35.50;;;;;;8355988;28;20780;-77
2021/04/24 12:15:26;;;;;;;15.10;7.20;;;22.60;37.10;;;;;;8367863;28;20462;-77
2021/04/24 12:19:32;;;;;;;15.20;8.37;;;22.80;37.20;;;;;;8376026;28;20483;-78
2021/04/24 12:23:36;;;;;;;16.60;8.00;;;22.80;36.20;;;;;;8357626;28;20528;-78
2021/04/24 12:27:46;;;;;;;8.00;7.07;;;22.60;37.10;;;;;;8359428;28;20536;-77
2021/04/24 12:31:53;;;;;;;24.33;9.53;;;22.40;37.40;;;;;;8370409;28;20445;-77
2021/04/24 12:36:02;;;;;;;15.43;7.30;;;22.40;37.00;;;;;;8332055;28;20454;-77
2021/04/24 12:40:23;;;;;;;9.77;7.53;;;22.40;37.60;;;;;;8363147;28;20405;-78
2021/04/24 12:44:29;;;;;;;14.50;8.97;;;22.40;37.80;;;;;;8348511;28;20449;-78
2021/04/24 12:48:55;;;;;;;17.87;8.93;;;22.40;38.10;;;;;;8357175;28;20431;-78
2021/04/24 12:53:42;;;;;;;22.87;9.10;;;22.50;38.40;;;;;;8372146;28;20411;-82
2021/04/24 12:57:55;;;;;;;12.23;8.10;;;22.40;38.60;;;;;;8364793;28;20534;-77
2021/04/24 13:01:57;;;;;;;11.10;8.27;;;22.30;37.70;;;;;;8363759;28;20452;-78
2021/04/24 13:05:58;;;;;;;15.60;9.00;;;22.20;38.50;;;;;;8347945;28;20985;-76
2021/04/24 13:10:13;;;;;;;13.90;8.70;;;22.70;38.40;;;;;;8376777;28;20927;-77
2021/04/24 13:14:23;;;;;;;11.70;8.07;;;22.80;37.50;;;;;;8355038;28;20494;-76
2021/04/24 13:18:32;;;;;;;11.30;7.10;;;22.50;36.40;;;;;;8338137;28;20451;-73
2021/04/24 13:22:45;;;;;;;12.30;6.70;;;22.40;37.20;;;;;;8358425;28;20429;-78
2021/04/24 13:26:56;;;;;;;11.33;6.20;;;22.30;36.70;;;;;;8357270;28;20469;-74
2021/04/24 13:31:00;;;;;;;9.87;6.93;;;22.70;37.00;;;;;;8346186;28;20465;-74
2021/04/24 13:35:06;;;;;;;9.00;5.77;;;23.20;36.50;;;;;;8368622;28;20470;-78
2021/04/24 13:39:16;;;;;;;10.97;6.80;;;23.50;36.00;;;;;;8344438;28;20454;-73
2021/04/24 13:43:30;;;;;;;7.07;6.07;;;23.70;36.60;;;;;;8348319;28;20719;-76
2021/04/24 13:47:31;;;;;;;9.00;4.63;;;23.60;36.60;;;;;;8347650;28;20440;-74
2021/04/24 13:51:35;;;;;;;7.10;5.43;;;23.40;34.70;;;;;;8346131;28;20508;-75
2021/04/24 13:56:05;;;;;;;11.43;6.20;;;23.20;35.40;;;;;;8341141;28;20424;-80
2021/04/24 14:00:13;;;;;;;7.97;6.00;;;23.00;35.00;;;;;;8376498;28;20433;-79
2021/04/24 14:04:18;;;;;;;9.43;6.40;;;23.00;36.40;;;;;;8359328;28;20489;-76
2021/04/24 14:08:19;;;;;;;12.50;7.10;;;23.20;36.90;;;;;;8358842;28;20459;-78
2021/04/24 14:12:24;;;;;;;7.67;5.70;;;23.20;37.60;;;;;;8367260;28;20481;-78
2021/04/24 14:16:26;;;;;;;11.13;6.37;;;23.20;37.50;;;;;;8348428;28;20206;-76
2021/04/24 14:20:26;;;;;;;9.37;6.30;;;23.40;36.80;;;;;;8346296;28;20448;-77
2021/04/24 14:24:27;;;;;;;14.90;6.10;;;23.10;36.50;;;;;;8353928;28;20505;-79
2021/04/24 14:28:28;;;;;;;13.10;5.50;;;22.50;37.10;;;;;;8372291;28;20202;-77
2021/04/24 14:32:29;;;;;;;8.10;5.73;;;22.10;37.80;;;;;;8360341;28;20208;-76
2021/04/24 14:36:46;;;;;;;14.37;6.33;;;22.10;36.30;;;;;;8350216;28;20472;-74
2021/04/24 14:40:48;;;;;;;9.43;6.03;;;22.00;37.40;;;;;;8353583;28;20284;-78
2021/04/24 14:44:56;;;;;;;9.20;5.80;;;22.20;36.80;;;;;;8355656;28;20470;-77
2021/04/24 14:48:59;;;;;;;9.20;6.00;;;22.10;36.20;;;;;;8319979;28;20478;-77
2021/04/24 14:53:02;;;;;;;7.40;6.00;;;22.00;35.90;;;;;;8339591;28;20419;-77
2021/04/24 14:57:10;;;;;;;10.80;5.67;;;21.80;36.20;;;;;;8341065;28;20449;-77
2021/04/24 15:01:45;;;;;;;6.63;4.87;;;21.80;37.10;;;;;;8368661;28;20480;-78
2021/04/24 15:05:53;;;;;;;13.63;6.83;;;22.00;36.90;;;;;;8372941;28;21245;-79
2021/04/24 15:09:54;;;;;;;13.97;6.90;;;22.10;36.90;;;;;;8351359;28;20445;-77
2021/04/24 15:13:55;;;;;;;8.20;5.43;;;22.30;36.50;;;;;;8347901;28;20487;-76
2021/04/24 15:17:56;;;;;;;8.73;4.90;;;22.40;36.50;;;;;;8369089;28;20225;-79
2021/04/24 15:22:04;;;;;;;6.03;5.43;;;22.40;36.40;;;;;;8353456;28;20871;-77
2021/04/24 15:26:05;;;;;;;8.27;5.53;;;22.20;35.90;;;;;;8350674;28;20451;-76
2021/04/24 15:30:09;;;;;;;5.83;5.13;;;22.00;36.40;;;;;;8314848;28;20512;-77
2021/04/24 15:34:54;;;;;;;;;;;;;;;;;;;;;
2021/04/24 15:38:44;;;;;;;20.07;5.87;;;21.80;36.90;;;;;;8367701;28;20477;-78
2021/04/24 15:42:45;;;;;;;7.00;5.60;;;21.60;36.40;;;;;;8347910;28;21365;-77
2021/04/24 15:46:49;;;;;;;9.00;6.50;;;21.50;36.40;;;;;;8341197;28;20272;-75
2021/04/24 15:50:49;;;;;;;8.70;6.50;;;21.50;35.70;;;;;;8335284;28;20197;-74
2021/04/24 15:54:52;;;;;;;9.70;5.53;;;21.20;36.20;;;;;;8329483;28;20549;-72
2021/04/24 15:58:54;;;;;;;11.83;7.47;;;20.90;36.30;;;;;;8334458;28;20205;-74
2021/04/24 16:03:03;;;;;;;10.53;5.70;;;21.10;36.70;;;;;;8344823;28;20480;-77
2021/04/24 16:07:06;;;;;;;10.40;5.70;;;21.00;35.90;;;;;;8351851;28;20512;-76
2021/04/24 16:11:08;;;;;;;12.40;5.30;;;20.90;37.10;;;;;;8334507;28;20445;-71
2021/04/24 16:15:11;;;;;;;6.87;5.23;;;20.90;37.20;;;;;;8334759;28;20445;-73
2021/04/24 16:19:12;;;;;;;5.47;4.50;;;20.80;37.80;;;;;;8342459;28;20474;-74
2021/04/24 16:23:20;;;;;;;10.23;5.53;;;20.70;37.40;;;;;;8345644;28;21224;-73
2021/04/24 16:27:28;;;;;;;9.03;5.73;;;20.70;37.00;;;;;;8366133;28;20448;-73
2021/04/24 16:31:33;;;;;;;9.57;6.23;;;20.60;37.00;;;;;;8365524;28;20540;-74
2021/04/24 16:35:34;;;;;;;9.83;6.43;;;20.40;36.50;;;;;;8334269;28;20529;-73
2021/04/24 16:39:34;;;;;;;21.10;9.83;;;20.30;36.20;;;;;;8332478;28;20198;-74
2021/04/24 16:43:37;;;;;;;7.50;5.37;;;20.20;35.30;;;;;;8316069;28;20222;-73
2021/04/24 16:47:37;;;;;;;30.63;7.47;;;20.00;35.90;;;;;;8339094;28;20849;-71
2021/04/24 16:51:43;;;;;;;9.87;6.70;;;19.90;37.00;;;;;;8342793;28;21290;-72
2021/04/24 16:55:45;;;;;;;8.77;6.60;;;19.60;37.00;;;;;;8330961;28;20542;-73
2021/04/24 16:59:46;;;;;;;9.20;5.87;;;19.30;37.30;;;;;;8339474;28;20451;-73
2021/04/24 17:03:47;;;;;;;14.20;8.40;;;19.10;38.40;;;;;;8338552;28;20482;-73
2021/04/24 17:07:53;;;;;;;10.80;7.73;;;18.90;39.20;;;;;;8342744;28;21007;-70
2021/04/24 17:12:00;;;;;;;8.13;5.10;;;18.80;39.50;;;;;;8342034;28;20526;-71
2021/04/24 17:16:01;;;;;;;11.07;6.10;;;18.70;39.80;;;;;;8348682;28;20491;-74
2021/04/24 17:20:02;;;;;;;9.63;6.20;;;18.60;39.90;;;;;;8342843;28;20486;-71
2021/04/24 17:24:03;;;;;;;9.50;5.97;;;18.40;39.70;;;;;;8346730;28;20218;-73
2021/04/24 17:28:04;;;;;;;13.43;5.87;;;18.30;41.20;;;;;;8324377;28;20457;-75
2021/04/24 17:32:08;;;;;;;11.27;6.70;;;18.10;40.90;;;;;;8342335;28;20482;-76
2021/04/24 17:36:15;;;;;;;11.43;6.60;;;18.00;40.50;;;;;;8360425;28;20815;-74
2021/04/24 17:40:19;;;;;;;11.23;6.50;;;17.90;41.00;;;;;;8363463;28;20471;-74
2021/04/24 17:44:20;;;;;;;11.00;5.30;;;18.00;41.60;;;;;;8337586;28;20500;-75
2021/04/24 17:48:22;;;;;;;8.20;5.50;;;18.10;41.00;;;;;;8344512;28;20460;-75
2021/04/24 17:52:25;;;;;;;8.87;6.37;;;17.80;41.20;;;;;;8343110;28;20197;-77
2021/04/24 17:56:31;;;;;;;8.87;5.60;;;17.30;41.80;;;;;;8341959;28;21092;-75
2021/04/24 18:00:46;;;;;;;9.40;5.90;;;17.00;43.00;;;;;;8363919;28;20439;-74
2021/04/24 18:04:47;;;;;;;10.10;5.77;;;16.70;44.00;;;;;;8345707;28;20536;-77
2021/04/24 18:08:48;;;;;;;11.90;5.90;;;16.50;44.20;;;;;;8333306;28;20498;-73
2021/04/24 18:12:51;;;;;;;17.67;7.83;;;16.20;45.20;;;;;;8364206;28;20976;-74
2021/04/24 18:16:53;;;;;;;13.33;7.40;;;16.00;45.60;;;;;;8344108;28;20464;-75
2021/04/24 18:20:55;;;;;;;10.27;7.10;;;15.70;46.40;;;;;;8343300;28;20507;-76
2021/04/24 18:25:13;;;;;;;12.60;6.97;;;15.40;47.20;;;;;;8344124;28;20555;-77
2021/04/24 18:29:16;;;;;;;14.67;7.80;;;15.20;48.00;;;;;;8368501;28;20438;-75
2021/04/24 18:33:18;;;;;;;16.20;8.27;;;14.90;48.80;;;;;;8350118;28;20529;-76
2021/04/24 18:37:24;;;;;;;17.93;8.90;;;14.60;49.30;;;;;;8341452;28;20443;-76
2021/04/24 18:41:25;;;;;;;15.70;8.80;;;14.40;50.10;;;;;;8360023;28;20448;-74
2021/04/24 18:45:30;;;;;;;12.03;7.87;;;14.10;51.10;;;;;;8357636;28;20480;-75
2021/04/24 18:49:32;;;;;;;14.77;8.47;;;13.90;52.10;;;;;;8329497;28;20259;-74
2021/04/24 18:53:33;;;;;;;14.90;8.97;;;13.70;53.10;;;;;;8358804;28;20443;-75
2021/04/24 18:57:38;;;;;;;22.70;9.37;;;13.50;53.20;;;;;;8353858;28;20889;-75
2021/04/24 19:01:40;;;;;;;15.97;7.50;;;13.30;53.50;;;;;;8362062;28;20440;-76
2021/04/24 19:05:44;;;;;;;20.87;9.60;;;13.20;54.10;;;;;;8352198;28;20477;-74
2021/04/24 19:09:47;;;;;;;13.17;8.47;;;13.10;54.90;;;;;;8349247;28;20450;-75
2021/04/24 19:13:49;;;;;;;14.17;7.83;;;12.90;55.20;;;;;;8320200;28;20449;-76
2021/04/24 19:17:56;;;;;;;16.67;9.37;;;12.80;55.90;;;;;;8341809;28;20500;-75
2021/04/24 19:21:57;;;;;;;17.03;9.57;;;12.60;56.30;;;;;;8348484;28;20491;-76
2021/04/24 19:26:00;;;;;;;16.60;9.93;;;12.50;57.30;;;;;;8348354;28;20476;-76
2021/04/24 19:30:01;;;;;;;17.43;9.87;;;12.40;57.80;;;;;;8315703;28;20184;-76
2021/04/24 19:34:02;;;;;;;15.00;8.40;;;12.20;57.80;;;;;;8346256;28;20496;-76
2021/04/24 19:38:04;;;;;;;15.17;10.20;;;12.20;58.40;;;;;;8343742;28;20191;-75
2021/04/24 19:42:06;;;;;;;16.83;9.73;;;12.10;58.40;;;;;;8326496;28;20514;-76
2021/04/24 19:46:10;;;;;;;13.93;8.80;;;12.00;59.20;;;;;;8316762;28;20561;-75
2021/04/24 19:50:13;;;;;;;37.63;10.73;;;11.90;59.60;;;;;;8346326;28;20472;-75
2021/04/24 19:54:18;;;;;;;17.97;8.40;;;11.80;60.10;;;;;;8378270;28;20510;-74
2021/04/24 19:58:18;;;;;;;19.57;9.47;;;11.70;62.10;;;;;;8344969;28;20448;-75
2021/04/24 20:02:20;;;;;;;14.37;8.27;;;11.50;62.70;;;;;;8344561;28;20202;-74
2021/04/24 20:06:24;;;;;;;17.70;9.33;;;11.40;63.90;;;;;;8327317;28;20816;-75
2021/04/24 20:10:29;;;;;;;19.90;8.63;;;11.20;64.50;;;;;;8347721;28;20448;-76
2021/04/24 20:14:31;;;;;;;23.20;10.97;;;11.10;64.70;;;;;;8354914;28;20436;-75
2021/04/24 20:18:40;;;;;;;21.47;9.87;;;11.00;64.70;;;;;;8335037;28;20472;-75
2021/04/24 20:22:49;;;;;;;17.83;8.80;;;10.90;66.60;;;;;;8358666;28;20500;-75
2021/04/24 20:26:56;;;;;;;24.37;9.83;;;10.80;66.60;;;;;;8335381;28;20549;-75
2021/04/24 20:31:03;;;;;;;17.03;9.60;;;10.70;66.20;;;;;;8353880;28;20445;-76
2021/04/24 20:35:08;;;;;;;23.10;11.87;;;10.60;67.10;;;;;;8352153;28;20457;-75
2021/04/24 20:39:15;;;;;;;18.17;11.03;;;10.50;68.70;;;;;;8340896;28;20468;-75
2021/04/24 20:43:22;;;;;;;24.13;12.80;;;10.30;69.70;;;;;;8352877;28;20447;-74
2021/04/24 20:47:22;;;;;;;17.67;8.57;;;10.20;70.80;;;;;;8362652;28;20488;-75
2021/04/24 20:51:23;;;;;;;27.90;10.73;;;10.10;70.50;;;;;;8352433;28;20483;-76
2021/04/24 20:55:28;;;;;;;19.23;10.17;;;9.90;72.20;;;;;;8350892;28;20332;-76
2021/04/24 20:59:29;;;;;;;17.60;9.80;;;9.80;74.40;;;;;;8344609;28;20222;-76
2021/04/24 21:03:36;;;;;;;19.67;10.10;;;9.70;75.00;;;;;;8351116;28;20438;-75